Time;durP1;ratioP1;P1;durP2;ratioP2;P2;SDS_P1;SDS_P2;PMS_P1;PMS_P2;Temp;Humidity;BMP_temperature;BMP_pressure;BME280_temperature;BME280_humidity;BME280_pressure;Samples;Min_cycle;Max_cycle;Signal;HPM_P1;HPM_P2
2021/07/08 00:02:17;;;;;;;10.53;6.78;;;;;;;19.49;81.12;98431.87;1767558;80;20914;-73
2021/07/08 00:04:43;;;;;;;15.28;6.33;;;;;;;19.44;81.10;98427.35;1767466;81;21463;-73
2021/07/08 00:07:10;;;;;;;7.97;5.97;;;;;;;19.42;80.82;98435.12;1767770;81;20806;-72
2021/07/08 00:09:37;;;;;;;10.43;6.85;;;;;;;19.34;80.49;98433.20;1768066;81;21051;-72
2021/07/08 00:12:04;;;;;;;9.78;5.78;;;;;;;19.25;81.69;98424.98;1767655;80;21229;-73
2021/07/08 00:14:30;;;;;;;14.43;5.80;;;;;;;19.17;81.22;98423.06;1769172;80;21433;-73
2021/07/08 00:16:56;;;;;;;8.88;6.37;;;;;;;19.10;83.79;98430.98;1775228;80;21614;-73
2021/07/08 00:19:22;;;;;;;10.68;5.25;;;;;;;19.10;81.78;98422.75;1775857;80;20857;-72
2021/07/08 00:21:48;;;;;;;9.65;6.08;;;;;;;19.07;81.77;98429.70;1775683;80;20928;-72
2021/07/08 00:24:13;;;;;;;7.80;5.80;;;;;;;19.04;81.72;98437.20;1775648;80;21997;-73
2021/07/08 00:26:39;;;;;;;11.28;6.17;;;;;;;19.03;81.30;98443.83;1775697;80;20845;-74
2021/07/08 00:29:05;;;;;;;8.70;5.85;;;;;;;19.03;81.67;98441.65;1776157;80;20900;-73
2021/07/08 00:31:31;;;;;;;7.15;5.08;;;;;;;19.02;81.92;98448.28;1775385;80;20917;-72
2021/07/08 00:34:01;;;;;;;13.80;6.75;;;;;;;19.04;81.61;98455.05;1776172;80;20868;-72
2021/07/08 00:36:25;;;;;;;6.53;5.17;;;;;;;19.05;81.78;98458.03;1775667;80;21078;-72
2021/07/08 00:38:51;;;;;;;8.38;5.65;;;;;;;19.06;81.19;98452.01;1775887;80;21503;-73
2021/07/08 00:41:17;;;;;;;9.43;5.03;;;;;;;19.04;80.80;98449.56;1775744;80;20900;-73
2021/07/08 00:43:43;;;;;;;8.48;6.00;;;;;;;19.07;80.72;98452.24;1775960;80;20960;-72
2021/07/08 00:46:09;;;;;;;9.50;6.08;;;;;;;19.10;80.81;98455.70;1775747;80;21028;-72
2021/07/08 00:48:34;;;;;;;11.33;5.45;;;;;;;19.10;81.00;98451.02;1775970;80;21329;-72
2021/07/08 00:51:00;;;;;;;8.00;5.47;;;;;;;19.03;80.93;98449.89;1775801;80;20833;-72
2021/07/08 00:53:26;;;;;;;11.35;5.97;;;;;;;18.94;80.08;98443.59;1776022;80;20881;-73
2021/07/08 00:55:59;;;;;;;7.60;5.30;;;;;;;18.83;80.46;98448.05;1775677;80;38568;-73
2021/07/08 00:58:25;;;;;;;11.08;5.15;;;;;;;18.73;81.95;98447.00;1775760;80;20964;-74
2021/07/08 01:00:51;;;;;;;11.50;5.35;;;;;;;18.68;80.93;98452.64;1775811;80;21338;-73
2021/07/08 01:03:17;;;;;;;6.70;5.58;;;;;;;18.63;80.96;98454.16;1775594;80;20912;-72
2021/07/08 01:05:47;;;;;;;13.60;6.58;;;;;;;18.63;80.76;98454.16;1775652;80;20904;-71
2021/07/08 01:08:13;;;;;;;8.85;6.05;;;;;;;18.51;84.13;98456.71;1776029;80;20953;-71
2021/07/08 01:10:40;;;;;;;7.67;5.58;;;;;;;18.49;82.78;98451.55;1775671;80;21027;-71
2021/07/08 01:13:06;;;;;;;11.15;5.00;;;;;;;18.46;82.54;98449.45;1775670;80;21211;-71
2021/07/08 01:15:32;;;;;;;9.98;4.95;;;;;;;18.42;82.95;98455.89;1772724;80;20837;-71
2021/07/08 01:17:58;;;;;;;8.93;5.15;;;;;;;18.42;82.13;98455.89;1770033;80;20975;-72
2021/07/08 01:20:28;;;;;;;9.50;4.92;;;;;;;18.36;83.08;98458.54;1770104;80;20837;-71
2021/07/08 01:23:00;;;;;;;7.90;5.25;;;;;;;18.32;83.19;98455.64;1769006;80;20956;-71
2021/07/08 01:25:32;;;;;;;14.40;5.87;;;;;;;18.23;83.47;98452.07;1769681;80;21145;-71
2021/07/08 01:27:59;;;;;;;8.58;5.67;;;;;;;18.11;84.24;98451.86;1769750;80;20886;-72
2021/07/08 01:30:25;;;;;;;7.40;6.22;;;;;;;18.05;83.87;98445.73;1769871;80;20977;-71
2021/07/08 01:32:51;;;;;;;8.13;5.30;;;;;;;18.06;82.58;98443.80;1769826;80;21424;-71
2021/07/08 01:35:17;;;;;;;8.28;5.50;;;;;;;18.13;82.28;98454.55;1770033;80;20882;-71
2021/07/08 01:37:43;;;;;;;8.03;4.95;;;;;;;18.21;82.00;98463.36;1769965;80;22019;-72
2021/07/08 01:40:11;;;;;;;11.65;5.35;;;;;;;18.29;81.84;98474.12;1770253;80;20814;-71
2021/07/08 01:42:38;;;;;;;7.00;5.47;;;;;;;18.32;81.62;98481.70;1769621;80;20961;-71
2021/07/08 01:45:05;;;;;;;8.80;5.40;;;;;;;18.33;82.39;98484.11;1774199;80;20997;-71
2021/07/08 01:47:31;;;;;;;6.53;5.42;;;;;;;18.34;82.08;98483.55;1769849;80;20874;-71
2021/07/08 01:49:57;;;;;;;7.58;4.37;;;;;;;18.28;82.25;98478.77;1769965;80;20928;-72
2021/07/08 01:52:23;;;;;;;9.23;5.42;;;;;;;18.21;82.81;98481.19;1769909;80;20849;-72
2021/07/08 01:54:49;;;;;;;14.75;5.65;;;;;;;18.15;83.00;98476.97;1770329;80;20861;-72
2021/07/08 01:57:15;;;;;;;10.03;4.75;;;;;;;18.15;83.83;98478.91;1769750;80;21503;-71
2021/07/08 01:59:41;;;;;;;6.45;4.78;;;;;;;18.09;83.86;98485.66;1770362;80;20825;-71
2021/07/08 02:02:07;;;;;;;6.97;5.45;;;;;;;18.09;82.38;98480.98;1769997;80;21750;-71
2021/07/08 02:04:33;;;;;;;6.53;4.95;;;;;;;18.03;82.59;98490.46;1768878;81;20841;-71
2021/07/08 02:06:59;;;;;;;8.75;5.35;;;;;;;18.01;82.54;98489.98;1748004;81;20933;-72
2021/07/08 02:09:25;;;;;;;11.48;5.05;;;;;;;17.98;82.45;98492.80;1770143;81;20897;-71
2021/07/08 02:11:51;;;;;;;7.47;5.10;;;;;;;18.03;82.68;98490.46;1769972;80;20893;-71
2021/07/08 02:14:17;;;;;;;7.58;4.95;;;;;;;18.03;82.59;98491.30;1770217;80;21322;-71
2021/07/08 02:16:43;;;;;;;7.25;5.05;;;;;;;17.98;82.38;98494.17;1769765;81;21519;-71
2021/07/08 02:19:09;;;;;;;6.28;4.67;;;;;;;17.98;83.01;98487.31;1770097;81;20917;-71
2021/07/08 02:21:34;;;;;;;8.20;5.35;;;;;;;18.00;83.48;98487.80;1770185;80;20880;-71
2021/07/08 02:24:00;;;;;;;11.15;5.20;;;;;;;17.99;83.74;98493.61;1770229;80;20833;-72
2021/07/08 02:26:26;;;;;;;6.33;4.50;;;;;;;17.96;83.10;98492.31;1770409;80;21210;-72
2021/07/08 02:28:52;;;;;;;7.20;4.85;;;;;;;17.91;83.11;98480.11;1770086;80;20892;-71
2021/07/08 02:31:18;;;;;;;11.43;4.83;;;;;;;17.85;82.65;98495.63;1769987;81;20857;-73
2021/07/08 02:33:44;;;;;;;7.62;4.87;;;;;;;17.83;82.48;98500.63;1769522;80;20968;-73
2021/07/08 02:36:10;;;;;;;8.55;5.60;;;;;;;17.84;82.98;98498.13;1770339;80;20909;-71
2021/07/08 02:38:36;;;;;;;7.55;5.22;;;;;;;17.80;82.70;98501.27;1770401;80;21325;-71
2021/07/08 02:41:06;;;;;;;8.13;4.65;;;;;;;17.81;82.55;98500.95;1770147;81;21467;-72
2021/07/08 02:43:32;;;;;;;6.95;4.83;;;;;;;17.82;83.80;98499.02;1770216;80;20984;-71
2021/07/08 02:45:58;;;;;;;5.65;4.70;;;;;;;17.84;83.38;98501.67;1770024;80;20953;-71
2021/07/08 02:48:24;;;;;;;5.97;4.55;;;;;;;17.80;83.30;98501.27;1770600;80;20821;-71
2021/07/08 02:50:52;;;;;;;9.28;4.95;;;;;;;17.72;83.36;98499.53;1770123;80;21128;-71
2021/07/08 02:53:18;;;;;;;6.33;5.03;;;;;;;17.67;82.84;98503.73;1770237;80;20882;-73
2021/07/08 02:55:44;;;;;;;9.48;4.37;;;;;;;17.60;83.62;98503.94;1770434;80;20985;-72
2021/07/08 02:58:11;;;;;;;7.30;5.47;;;;;;;17.60;84.37;98497.89;1769862;80;20869;-72
2021/07/08 03:00:37;;;;;;;8.18;5.00;;;;;;;17.66;84.10;98504.05;1770563;80;21036;-72
2021/07/08 03:03:04;;;;;;;7.55;4.95;;;;;;;17.65;83.75;98501.07;1769793;80;21000;-73
2021/07/08 03:05:30;;;;;;;7.03;4.65;;;;;;;17.66;83.33;98505.42;1770071;80;20969;-72
2021/07/08 03:07:56;;;;;;;6.30;4.78;;;;;;;17.69;83.03;98508.36;1769853;80;20939;-70
2021/07/08 03:10:24;;;;;;;16.15;5.95;;;;;;;17.69;83.11;98510.30;1770213;80;21456;-72
2021/07/08 03:12:50;;;;;;;8.50;5.10;;;;;;;17.68;83.24;98512.77;1770340;80;20933;-72
2021/07/08 03:15:16;;;;;;;5.97;5.37;;;;;;;17.66;83.75;98513.64;1770173;80;22002;-71
2021/07/08 03:17:42;;;;;;;11.28;6.08;;;;;;;17.69;83.94;98508.93;1769902;80;20961;-71
2021/07/08 03:20:12;;;;;;;9.88;5.05;;;;;;;17.68;83.74;98512.20;1769802;80;20869;-72
2021/07/08 03:22:40;;;;;;;12.13;6.22;;;;;;;17.68;83.08;98513.58;1769462;80;20938;-73
2021/07/08 03:25:08;;;;;;;5.40;4.62;;;;;;;17.69;83.23;98510.30;1770386;80;20992;-72
2021/07/08 03:27:34;;;;;;;5.60;5.00;;;;;;;17.69;83.68;98513.04;1769552;80;22005;-73
2021/07/08 03:30:00;;;;;;;9.83;5.37;;;;;;;17.64;84.19;98514.53;1769916;80;20885;-71
2021/07/08 03:32:26;;;;;;;5.35;4.12;;;;;;;17.76;83.23;98523.00;1769759;80;21370;-72
2021/07/08 03:34:51;;;;;;;9.75;4.58;;;;;;;17.85;83.04;98524.41;1770034;81;20861;-71
2021/07/08 03:37:17;;;;;;;6.97;4.58;;;;;;;17.89;82.82;98530.34;1769974;80;20897;-71
2021/07/08 03:39:43;;;;;;;7.72;5.25;;;;;;;18.02;82.53;98534.09;1770293;80;21788;-72
2021/07/08 03:42:09;;;;;;;14.35;6.03;;;;;;;18.14;82.30;98537.06;1769824;81;20830;-73
2021/07/08 03:44:35;;;;;;;31.80;27.75;;;;;;;18.20;81.98;98537.17;1770132;81;20861;-72
2021/07/08 03:47:01;;;;;;;20.43;13.30;;;;;;;18.28;82.86;98539.11;1770122;80;20822;-74
2021/07/08 03:49:27;;;;;;;19.55;14.73;;;;;;;18.35;82.20;98541.40;1770073;80;20861;-71
2021/07/08 03:51:53;;;;;;;12.03;6.62;;;;;;;18.47;81.57;98544.36;1770095;80;21304;-73
2021/07/08 03:54:19;;;;;;;10.28;5.83;;;;;;;18.58;81.63;98543.49;1770078;81;20826;-73
2021/07/08 03:56:45;;;;;;;8.83;5.53;;;;;;;18.60;81.31;98554.95;1770461;80;20957;-72
2021/07/08 03:59:11;;;;;;;11.75;5.90;;;;;;;18.64;82.17;98551.02;1770170;81;20885;-74
2021/07/08 04:01:39;;;;;;;7.65;6.15;;;;;;;18.64;81.52;98550.45;1770139;80;20841;-71
2021/07/08 04:04:05;;;;;;;10.80;6.10;;;;;;;18.68;81.63;98550.08;1770045;80;21417;-71
2021/07/08 04:06:31;;;;;;;13.15;5.37;;;;;;;18.74;81.67;98546.63;1770082;80;20865;-72
2021/07/08 04:08:57;;;;;;;6.87;5.47;;;;;;;18.77;81.51;98548.16;1768931;81;20924;-72
2021/07/08 04:11:23;;;;;;;12.50;5.17;;;;;;;18.85;81.45;98553.42;1770034;80;20865;-74
2021/07/08 04:13:49;;;;;;;8.60;5.90;;;;;;;18.87;81.36;98545.09;1769952;80;20818;-73
2021/07/08 04:16:15;;;;;;;7.30;5.20;;;;;;;18.94;81.28;98541.88;1768819;80;21202;-72
2021/07/08 04:18:41;;;;;;;9.08;5.25;;;;;;;18.98;80.80;98544.24;1770163;81;20818;-71
2021/07/08 04:21:07;;;;;;;8.15;4.85;;;;;;;18.98;80.23;98542.87;1770505;80;20814;-72
2021/07/08 04:23:33;;;;;;;9.40;5.62;;;;;;;18.98;79.98;98546.18;1768676;80;20873;-72
2021/07/08 04:25:59;;;;;;;11.73;5.50;;;;;;;19.03;79.74;98547.38;1769749;81;20917;-72
2021/07/08 04:28:25;;;;;;;7.80;5.00;;;;;;;19.12;79.26;98549.00;1769909;80;21217;-72
2021/07/08 04:30:51;;;;;;;19.25;9.23;;;;;;;19.27;78.96;98548.28;1769681;80;21428;-72
2021/07/08 04:33:17;;;;;;;27.20;11.57;;;;;;;19.37;78.75;98553.44;1770048;80;20881;-71
2021/07/08 04:35:44;;;;;;;9.38;5.95;;;;;;;19.48;78.58;98552.53;1770242;80;20961;-72
2021/07/08 04:38:12;;;;;;;11.57;6.70;;;;;;;19.56;77.94;98548.97;1769955;80;20894;-71
2021/07/08 04:40:38;;;;;;;9.55;5.55;;;;;;;19.48;77.61;98548.41;1769972;80;21295;-71
2021/07/08 04:43:05;;;;;;;12.93;6.08;;;;;;;19.34;77.83;98548.60;1769874;80;21377;-73
2021/07/08 04:45:31;;;;;;;8.48;5.15;;;;;;;19.28;77.81;98543.83;1748755;81;20992;-72
2021/07/08 04:47:57;;;;;;;6.33;4.53;;;;;;;19.31;78.58;98542.36;1769998;81;20873;-72
2021/07/08 04:50:24;;;;;;;10.60;4.65;;;;;;;19.40;78.09;98539.07;1770335;80;20889;-72
2021/07/08 04:52:50;;;;;;;11.48;5.22;;;;;;;19.47;77.97;98545.42;1770001;80;21126;-71
2021/07/08 04:55:17;;;;;;;6.10;4.58;;;;;;;19.50;77.87;98547.54;1770203;81;21456;-72
2021/07/08 04:57:45;;;;;;;6.62;4.95;;;;;;;19.56;77.52;98546.22;1769569;80;20969;-71
2021/07/08 05:00:13;;;;;;;9.45;4.67;;;;;;;19.58;77.43;98538.51;1770138;81;20933;-72
2021/07/08 05:02:40;;;;;;;14.50;5.85;;;;;;;19.67;77.09;98540.10;1769425;80;20957;-72
2021/07/08 05:05:07;;;;;;;12.37;4.83;;;;;;;19.73;76.78;98537.40;1769688;80;21113;-72
2021/07/08 05:07:33;;;;;;;6.80;5.10;;;;;;;19.78;76.60;98542.50;1769869;80;20993;-74
2021/07/08 05:09:59;;;;;;;8.98;5.12;;;;;;;19.88;76.67;98538.83;1770109;81;21377;-72
2021/07/08 05:12:25;;;;;;;8.53;3.75;;;;;;;20.03;76.04;98537.48;1769883;80;20826;-72
2021/07/08 05:14:51;;;;;;;8.20;4.30;;;;;;;20.09;75.55;98537.56;1770357;81;20893;-74
2021/07/08 05:17:19;;;;;;;11.60;4.60;;;;;;;20.12;75.46;98540.20;1751043;80;21909;-74
2021/07/08 05:19:45;;;;;;;9.68;4.35;;;;;;;20.21;75.32;98542.35;1730794;83;21017;-73
2021/07/08 05:22:11;;;;;;;8.28;4.70;;;;;;;20.24;74.73;98542.48;1730864;82;20867;-73
2021/07/08 05:24:37;;;;;;;8.80;4.62;;;;;;;20.33;74.46;98547.14;1731579;82;20858;-71
2021/07/08 05:27:03;;;;;;;6.22;4.67;;;;;;;20.42;74.45;98543.78;1730175;83;20935;-71
2021/07/08 05:29:30;;;;;;;7.28;4.75;;;;;;;20.42;73.64;98539.08;1730866;82;21125;-71
2021/07/08 05:31:56;;;;;;;10.80;4.83;;;;;;;20.62;73.48;98534.01;1730549;83;21402;-71
2021/07/08 05:34:22;;;;;;;13.38;5.25;;;;;;;20.66;72.76;98542.63;1730885;82;20874;-71
2021/07/08 05:36:47;;;;;;;12.33;5.35;;;;;;;20.81;72.92;98546.75;1730874;82;20858;-71
2021/07/08 05:39:13;;;;;;;13.75;5.55;;;;;;;20.94;72.62;98547.66;1731085;82;21826;-71
2021/07/08 05:41:40;;;;;;;9.13;4.80;;;;;;;21.05;72.45;98553.80;1731004;82;21943;-73
2021/07/08 05:44:06;;;;;;;10.28;5.60;;;;;;;21.12;72.33;98549.14;1730838;82;21018;-73
2021/07/08 05:46:32;;;;;;;12.23;5.30;;;;;;;21.12;71.76;98549.94;1730414;83;21013;-71
2021/07/08 05:48:59;;;;;;;8.00;5.28;;;;;;;21.18;71.56;98540.08;1730697;82;20946;-71
2021/07/08 05:51:25;;;;;;;11.60;5.35;;;;;;;21.23;70.86;98544.02;1730641;83;20965;-73
2021/07/08 05:53:53;;;;;;;7.42;5.15;;;;;;;21.19;70.86;98538.36;1730556;82;21240;-74
2021/07/08 05:56:18;;;;;;;7.70;5.00;;;;;;;21.36;70.62;98544.32;1731455;83;20930;-71
2021/07/08 05:58:44;;;;;;;12.28;5.67;;;;;;;21.39;69.61;98544.47;1730001;82;21410;-74
2021/07/08 06:01:10;;;;;;;10.10;5.45;;;;;;;21.50;69.37;98542.09;1730414;83;20838;-71
2021/07/08 06:03:36;;;;;;;12.07;5.50;;;;;;;21.46;68.91;98532.91;1730834;82;20989;-71
2021/07/08 06:06:02;;;;;;;10.80;5.90;;;;;;;21.60;69.08;98537.53;1730427;82;21990;-73
2021/07/08 06:08:28;;;;;;;12.63;6.60;;;;;;;21.67;68.80;98540.55;1731083;82;20858;-73
2021/07/08 06:10:55;;;;;;;14.43;6.92;;;;;;;21.80;68.74;98538.64;1731532;82;21598;-71
2021/07/08 06:13:21;;;;;;;13.58;6.50;;;;;;;22.11;68.71;98539.52;1731101;82;20974;-74
2021/07/08 06:15:46;;;;;;;9.48;5.80;;;;;;;22.23;66.69;98542.89;1731212;82;21532;-72
2021/07/08 06:18:12;;;;;;;17.32;8.38;;;;;;;22.55;67.71;98543.10;1731272;82;21156;-74
2021/07/08 06:20:38;;;;;;;11.90;6.08;;;;;;;22.77;66.87;98540.67;1731341;82;20858;-71
2021/07/08 06:23:04;;;;;;;12.18;6.55;;;;;;;23.01;66.28;98539.06;1731172;83;20929;-73
2021/07/08 06:25:31;;;;;;;11.78;6.65;;;;;;;22.91;64.66;98537.59;1731441;83;20834;-73
2021/07/08 06:27:58;;;;;;;12.45;6.95;;;;;;;23.25;65.20;98542.34;1731377;82;21359;-73
2021/07/08 06:30:24;;;;;;;10.68;6.50;;;;;;;23.51;64.70;98536.36;1731314;82;21138;-71
2021/07/08 06:32:50;;;;;;;13.05;6.72;;;;;;;23.49;62.99;98531.73;1731142;82;20921;-71
2021/07/08 06:35:18;;;;;;;17.50;7.72;;;;;;;23.63;63.79;98528.83;1732023;82;20866;-73
2021/07/08 06:37:45;;;;;;;15.43;8.17;;;;;;;23.72;63.97;98527.28;1731095;83;20998;-72
2021/07/08 06:40:14;;;;;;;14.25;7.65;;;;;;;23.97;63.37;98525.18;1730993;82;21016;-72
2021/07/08 06:42:40;;;;;;;19.00;8.38;;;;;;;23.59;62.77;98518.27;1730963;82;21126;-72
2021/07/08 06:45:10;;;;;;;19.42;7.30;;;;;;;23.35;62.71;98519.72;1731662;83;20860;-74
2021/07/08 06:47:43;;;;;;;17.42;7.55;;;;;;;23.54;63.73;98514.91;1730630;83;20918;-71
2021/07/08 06:50:09;;;;;;;11.33;7.37;;;;;;;23.87;63.81;98514.06;1732281;82;21450;-72
2021/07/08 06:52:35;;;;;;;13.70;7.72;;;;;;;24.17;62.78;98513.61;1730980;82;21338;-74
2021/07/08 06:55:01;;;;;;;12.98;7.45;;;;;;;23.98;62.17;98507.41;1731448;83;21150;-75
2021/07/08 06:57:27;;;;;;;12.73;7.50;;;;;;;24.04;62.20;98507.95;1731187;82;20874;-74
2021/07/08 06:59:53;;;;;;;10.25;7.08;;;;;;;24.16;62.15;98505.09;1731524;82;20957;-72
2021/07/08 07:02:19;;;;;;;12.90;7.25;;;;;;;24.30;61.15;98508.22;1731197;83;20834;-74
2021/07/08 07:04:45;;;;;;;15.13;7.78;;;;;;;24.31;61.79;98504.86;1731310;82;21497;-74
2021/07/08 07:07:14;;;;;;;13.20;7.42;;;;;;;24.20;61.26;98501.27;1731126;83;21285;-72
2021/07/08 07:09:38;;;;;;;15.13;7.27;;;;;;;24.44;61.58;98496.14;1730797;82;21029;-72
2021/07/08 07:12:05;;;;;;;11.53;6.95;;;;;;;24.36;61.29;98495.75;1730395;82;20886;-74
2021/07/08 07:14:31;;;;;;;14.95;8.65;;;;;;;24.39;61.65;98496.98;1731261;82;20919;-74
2021/07/08 07:16:57;;;;;;;16.07;8.18;;;;;;;24.22;60.72;98502.28;1734994;80;20922;-72
2021/07/08 07:19:23;;;;;;;15.03;7.80;;;;;;;24.35;61.86;98501.03;1768980;80;21744;-74
2021/07/08 07:21:49;;;;;;;16.82;7.78;;;;;;;24.51;61.60;98494.67;1770097;81;20857;-72
2021/07/08 07:24:15;;;;;;;12.33;6.97;;;;;;;24.89;60.85;98487.84;1770044;81;20908;-72
2021/07/08 07:26:41;;;;;;;11.60;7.15;;;;;;;24.91;60.03;98490.25;1770050;80;20850;-74
2021/07/08 07:29:06;;;;;;;12.47;6.95;;;;;;;25.17;60.20;98484.09;1770032;80;20905;-74
2021/07/08 07:31:32;;;;;;;13.53;7.08;;;;;;;25.27;59.44;98473.79;1770018;81;21684;-74
2021/07/08 07:33:58;;;;;;;12.73;6.17;;;;;;;25.13;59.89;98475.70;1769789;81;20829;-74
2021/07/08 07:36:24;;;;;;;14.95;5.75;;;;;;;25.07;59.54;98479.13;1770156;80;20908;-72
2021/07/08 07:38:50;;;;;;;11.10;6.22;;;;;;;25.50;59.28;98473.84;1769962;81;20806;-72
2021/07/08 07:41:16;;;;;;;11.12;5.97;;;;;;;25.88;57.58;98474.36;1770238;81;20806;-72
2021/07/08 07:43:42;;;;;;;11.00;6.10;;;;;;;26.26;56.08;98472.04;1770000;81;22029;-72
2021/07/08 07:46:08;;;;;;;12.98;6.12;;;;;;;26.65;56.71;98471.25;1770046;80;21026;-74
2021/07/08 07:48:34;;;;;;;8.88;5.78;;;;;;;26.90;54.14;98463.84;1770076;80;21566;-72
2021/07/08 07:51:00;;;;;;;11.68;5.37;;;;;;;27.28;53.75;98462.77;1770004;81;20985;-72
2021/07/08 07:53:26;;;;;;;14.50;5.78;;;;;;;27.38;52.43;98462.09;1770073;80;20972;-72
2021/07/08 07:55:52;;;;;;;10.93;4.92;;;;;;;27.37;54.04;98459.70;1770149;81;22030;-73
2021/07/08 07:58:18;;;;;;;10.05;5.28;;;;;;;27.51;53.88;98459.23;1770491;80;20900;-75
2021/07/08 08:00:44;;;;;;;12.35;5.22;;;;;;;27.70;53.56;98458.88;1770166;80;21376;-75
2021/07/08 08:03:10;;;;;;;13.58;4.40;;;;;;;28.01;52.52;98455.57;1769778;81;20917;-75
2021/07/08 08:05:38;;;;;;;10.35;4.85;;;;;;;28.31;51.75;98455.45;1769978;80;20857;-72
2021/07/08 08:10:49;;;;;;;12.47;4.37;;;;;;;28.97;49.94;98451.30;1770167;80;20910;-74
2021/07/08 08:13:16;;;;;;;14.73;6.35;;;;;;;29.32;49.77;98449.84;1770135;80;20949;-74
2021/07/08 08:15:44;;;;;;;11.53;6.97;;;;;;;29.44;47.98;98445.27;1769647;81;21063;-71
2021/07/08 08:18:10;;;;;;;10.60;6.15;;;;;;;29.65;48.17;98455.11;1769972;80;21465;-74
2021/07/08 08:20:36;;;;;;;15.35;6.15;;;;;;;30.09;48.28;98446.23;1770214;80;22030;-73
2021/07/08 08:23:02;;;;;;;10.58;5.40;;;;;;;30.16;45.50;98448.39;1769827;80;20857;-74
2021/07/08 08:25:28;;;;;;;7.62;5.37;;;;;;;29.68;47.33;98438.18;1770223;80;20935;-73
2021/07/08 08:27:54;;;;;;;8.10;5.20;;;;;;;30.42;47.07;98441.58;1769931;80;20853;-75
2021/07/08 08:30:19;;;;;;;15.80;10.72;;;;;;;31.07;46.51;98438.83;1770706;80;20806;-73
2021/07/08 08:32:45;;;;;;;8.65;5.17;;;;;;;31.03;45.37;98439.46;1769887;80;21274;-73
2021/07/08 08:35:12;;;;;;;9.15;6.60;;;;;;;31.52;44.90;98437.63;1770179;80;20907;-74
2021/07/08 08:37:40;;;;;;;13.80;8.65;;;;;;;31.18;44.68;98431.17;1770124;80;20965;-73
2021/07/08 08:40:08;;;;;;;8.50;5.12;;;;;;;31.38;44.39;98431.52;1770836;80;21525;-74
2021/07/08 08:42:33;;;;;;;10.80;5.35;;;;;;;31.60;44.75;98430.77;1770253;80;21039;-74
2021/07/08 08:45:00;;;;;;;12.23;5.12;;;;;;;31.81;43.81;98419.27;1769831;81;21306;-74
2021/07/08 08:47:26;;;;;;;13.55;4.58;;;;;;;32.30;42.68;98426.43;1769927;80;21393;-74
2021/07/08 08:49:55;;;;;;;9.60;5.40;;;;;;;32.56;43.13;98426.43;1770019;80;20833;-73
2021/07/08 08:52:22;;;;;;;9.78;4.45;;;;;;;32.78;40.80;98422.77;1769794;80;21797;-75
2021/07/08 08:54:50;;;;;;;8.68;4.28;;;;;;;32.88;41.89;98418.27;1769994;81;20870;-74
2021/07/08 08:57:15;;;;;;;6.62;4.60;;;;;;;33.61;41.25;98411.48;1769515;80;22013;-75
2021/07/08 08:59:41;;;;;;;11.20;5.62;;;;;;;33.90;39.56;98399.20;1769785;81;20826;-75
2021/07/08 09:02:13;;;;;;;11.83;4.92;;;;;;;34.14;39.87;98407.66;1768814;81;20928;-74
2021/07/08 09:04:39;;;;;;;9.15;5.00;;;;;;;34.14;37.86;98401.41;1770145;80;21000;-73
2021/07/08 09:07:30;;;;;;;13.30;5.05;;;;;;;34.56;38.42;98405.31;1770024;81;20988;-73
2021/07/08 09:09:59;;;;;;;6.80;4.47;;;;;;;34.09;37.87;98395.48;1769774;80;21448;-74
2021/07/08 09:12:25;;;;;;;12.18;5.25;;;;;;;34.22;37.93;98395.06;1769858;79;20945;-74
2021/07/08 09:15:15;;;;;;;6.10;4.42;;;;;;;34.18;38.22;98390.09;1769411;80;20941;-75
2021/07/08 09:17:42;;;;;;;11.05;4.67;;;;;;;35.09;37.68;98392.20;1763773;80;21001;-73
2021/07/08 09:20:19;;;;;;;8.90;4.78;;;;;;;35.10;36.19;98383.93;1767946;80;20949;-73
2021/07/08 09:22:46;;;;;;;10.43;4.80;;;;;;;34.62;36.52;98385.31;1767873;80;21430;-72
2021/07/08 09:25:23;;;;;;;7.87;4.93;;;;;;;35.49;36.88;98381.06;1767898;81;20917;-73
2021/07/08 09:27:53;;;;;;;9.38;4.47;;;;;;;35.68;35.47;98380.81;1767817;80;20953;-75
2021/07/08 09:30:27;;;;;;;7.42;4.17;;;;;;;35.15;36.21;98370.76;1764915;80;20890;-74
2021/07/08 09:32:53;;;;;;;6.20;4.30;;;;;;;35.32;36.38;98375.20;1767558;80;20949;-75
2021/07/08 09:35:39;;;;;;;6.75;4.42;;;;;;;35.64;36.00;98373.07;1746059;81;21404;-74
2021/07/08 09:38:14;;;;;;;11.70;5.10;;;;;;;36.07;35.80;98369.21;1767751;81;20949;-74
2021/07/08 09:40:41;;;;;;;7.87;4.40;;;;;;;36.33;34.63;98365.28;1767921;80;20934;-75
2021/07/08 09:43:07;;;;;;;7.25;4.60;;;;;;;36.48;34.78;98360.05;1767846;80;21008;-74
2021/07/08 09:45:45;;;;;;;8.43;4.10;;;;;;;36.66;33.34;98357.53;1767545;80;20945;-75
2021/07/08 09:48:20;;;;;;;10.28;4.87;;;;;;;37.68;33.22;98359.70;1767820;80;21162;-75
2021/07/08 09:50:46;;;;;;;15.43;5.10;;;;;;;37.45;32.20;98350.34;1767959;80;20945;-73
2021/07/08 09:53:21;;;;;;;7.40;4.10;;;;;;;36.84;32.90;98357.05;1767893;80;21071;-73
2021/07/08 09:56:43;;;;;;;7.85;4.12;;;;;;;37.27;32.69;98352.30;1768957;79;20918;-74
2021/07/08 09:58:27;;;;;;;9.63;3.90;;;;;;;37.70;32.63;98352.37;1753894;80;20883;-75
2021/07/08 10:00:53;;;;;;;9.20;5.10;;;;;;;38.66;32.13;98349.04;1768548;80;21263;-75
2021/07/08 10:03:19;;;;;;;6.90;4.20;;;;;;;39.27;31.19;98348.18;1767845;81;21544;-75
2021/07/08 10:05:45;;;;;;;8.40;3.92;;;;;;;39.52;30.80;98344.34;1767672;81;20814;-74
2021/07/08 10:08:11;;;;;;;13.58;4.33;;;;;;;39.34;29.37;98342.86;1768697;80;20916;-74
2021/07/08 10:10:41;;;;;;;7.40;4.03;;;;;;;38.96;30.51;98341.06;1767857;81;20845;-75
2021/07/08 10:13:08;;;;;;;14.30;4.10;;;;;;;39.33;30.58;98334.20;1767677;80;21212;-75
2021/07/08 10:15:37;;;;;;;7.87;3.85;;;;;;;40.11;29.76;98328.77;1746391;80;20946;-74
2021/07/08 10:18:04;;;;;;;10.00;4.03;;;;;;;40.39;29.07;98337.44;1766980;80;20976;-74
2021/07/08 10:20:31;;;;;;;7.12;4.15;;;;;;;39.70;29.57;98335.92;1767775;81;20902;-74
2021/07/08 10:22:58;;;;;;;13.55;4.37;;;;;;;39.88;29.59;98324.45;1767953;81;20933;-76
2021/07/08 10:25:24;;;;;;;8.55;4.05;;;;;;;40.31;29.46;98320.56;1767696;81;21331;-74
2021/07/08 10:27:50;;;;;;;8.88;3.90;;;;;;;40.76;28.60;98316.91;1767909;81;20818;-74
2021/07/08 10:30:20;;;;;;;7.90;4.17;;;;;;;41.13;28.06;98320.47;1746251;80;20941;-74
2021/07/08 10:32:57;;;;;;;9.18;4.62;;;;;;;40.66;28.02;98308.88;1746249;80;20958;-76
2021/07/08 10:35:48;;;;;;;6.90;3.72;;;;;;;40.64;28.92;98308.58;1768769;80;21032;-74
2021/07/08 10:38:40;;;;;;;10.35;3.92;;;;;;;40.99;28.69;98302.67;1767546;80;20996;-75
2021/07/08 10:41:11;;;;;;;10.18;4.03;;;;;;;41.24;28.49;98301.47;1746365;80;21556;-75
2021/07/08 10:43:42;;;;;;;12.37;4.22;;;;;;;41.76;26.88;98289.39;1760920;81;21087;-76
2021/07/08 10:46:11;;;;;;;6.37;3.98;;;;;;;41.48;28.23;98287.97;1768047;81;21111;-73
2021/07/08 10:48:50;;;;;;;7.92;3.98;;;;;;;41.89;27.52;98288.52;1767906;81;21460;-73
2021/07/08 10:51:31;;;;;;;9.63;4.58;;;;;;;42.33;27.10;98277.91;1768136;80;21138;-74
2021/07/08 10:53:57;;;;;;;10.40;4.28;;;;;;;43.05;26.32;98277.00;1767837;81;20941;-73
2021/07/08 10:56:32;;;;;;;8.63;3.93;;;;;;;43.34;26.01;98273.96;1768376;80;28002;-74
2021/07/08 10:58:58;;;;;;;10.63;4.60;;;;;;;43.75;25.50;98268.34;1767844;80;20937;-73
2021/07/08 11:01:39;;;;;;;10.80;4.35;;;;;;;43.19;25.70;98266.08;1746812;80;20945;-74
2021/07/08 11:04:05;;;;;;;10.08;4.10;;;;;;;42.83;26.13;98265.88;1768265;80;21161;-76
2021/07/08 11:06:33;;;;;;;8.53;3.90;;;;;;;42.89;25.72;98264.66;1768174;81;20814;-75
2021/07/08 11:09:08;;;;;;;10.08;4.40;;;;;;;43.04;25.58;98261.83;1768234;80;20910;-74
2021/07/08 11:11:50;;;;;;;6.97;4.35;;;;;;;43.27;25.71;98254.41;1766272;81;20977;-74
2021/07/08 11:14:24;;;;;;;9.10;4.92;;;;;;;42.61;26.26;98257.08;1767952;80;20926;-74
2021/07/08 11:17:13;;;;;;;7.30;4.28;;;;;;;42.38;26.19;98248.73;1767495;81;21342;-74
2021/07/08 11:19:44;;;;;;;5.80;4.25;;;;;;;42.27;26.66;98255.66;1772999;80;20937;-76
2021/07/08 11:22:16;;;;;;;7.37;4.20;;;;;;;42.54;26.04;98256.05;1775599;80;21425;-75
2021/07/08 11:24:51;;;;;;;11.03;4.12;;;;;;;42.00;26.42;98249.55;1775930;80;21456;-76
2021/07/08 11:27:29;;;;;;;7.55;4.53;;;;;;;42.08;26.71;98254.23;1775817;80;20961;-74
2021/07/08 11:29:58;;;;;;;6.58;4.20;;;;;;;41.38;27.55;98261.02;1775496;80;21151;-75
2021/07/08 11:32:34;;;;;;;10.10;4.50;;;;;;;41.20;27.47;98250.36;1775719;80;21019;-74
2021/07/08 11:35:19;;;;;;;15.98;5.00;;;;;;;40.49;28.43;98258.13;1775680;80;20881;-74